Time;durP1;ratioP1;P1;durP2;ratioP2;P2;SDS_P1;SDS_P2;PMS_P1;PMS_P2;Temp;Humidity;BMP_temperature;BMP_pressure;BME280_temperature;BME280_humidity;BME280_pressure;Samples;Min_cycle;Max_cycle;Signal;HPM_P1;HPM_P2
2023/01/23 00:00:39;;;;;;;29.75;16.77;;;;;;;4.31;100.00;101230.97;5101316;28;20039;-68
2023/01/23 00:03:05;;;;;;;28.30;16.35;;;;;;;4.30;100.00;101226.59;5100448;28;20028;-68
2023/01/23 00:05:30;;;;;;;27.67;16.30;;;;;;;4.27;100.00;101222.31;5100964;28;20034;-69
2023/01/23 00:07:55;;;;;;;29.00;17.08;;;;;;;4.34;100.00;101234.34;5099807;28;20032;-69
2023/01/23 00:10:21;;;;;;;30.27;17.55;;;;;;;4.23;100.00;101215.41;5099349;28;20027;-69
2023/01/23 00:12:52;;;;;;;26.05;15.60;;;;;;;4.28;100.00;101229.34;5103937;28;20501;-68
2023/01/23 00:15:17;;;;;;;26.13;15.35;;;;;;;4.29;100.00;101239.00;5102361;28;20040;-67
2023/01/23 00:17:44;;;;;;;26.13;15.13;;;;;;;4.27;100.00;101227.63;5097109;28;20051;-68
2023/01/23 00:20:11;;;;;;;25.95;15.52;;;;;;;4.30;100.00;101242.53;5106522;27;20015;-67
2023/01/23 00:22:37;;;;;;;25.90;15.95;;;;;;;4.27;100.00;101240.91;5101306;28;20359;-67
2023/01/23 00:25:03;;;;;;;26.63;15.82;;;;;;;4.32;100.00;101249.50;5104478;28;20150;-68
2023/01/23 00:27:29;;;;;;;25.40;15.48;;;;;;;4.32;100.00;101238.03;5100198;28;20447;-68
2023/01/23 00:29:55;;;;;;;26.98;15.45;;;;;;;4.32;100.00;101238.03;5103434;28;20064;-67
2023/01/23 00:32:21;;;;;;;25.00;15.38;;;;;;;4.32;100.00;101248.66;5103599;28;20428;-68
2023/01/23 00:34:46;;;;;;;25.73;15.35;;;;;;;4.35;100.00;101259.09;5102496;28;20391;-68
2023/01/23 00:37:12;;;;;;;24.73;15.32;;;;;;;4.32;100.00;101262.75;5104681;28;20031;-67
2023/01/23 00:39:39;;;;;;;22.75;14.25;;;;;;;4.39;100.00;101258.03;5104124;28;20710;-69
2023/01/23 00:42:05;;;;;;;23.52;14.75;;;;;;;4.34;100.00;101252.06;5104073;28;20508;-69
2023/01/23 00:44:31;;;;;;;25.15;14.70;;;;;;;4.38;100.00;101256.28;5103322;28;20581;-69
2023/01/23 00:46:57;;;;;;;23.30;14.68;;;;;;;4.31;100.00;101231.84;5102973;28;20032;-68
2023/01/23 00:49:22;;;;;;;26.92;15.20;;;;;;;4.43;100.00;101248.97;5098559;28;20065;-68
2023/01/23 00:51:49;;;;;;;23.73;13.75;;;;;;;4.43;100.00;101236.56;5101880;28;20040;-68
2023/01/23 00:54:15;;;;;;;25.65;14.35;;;;;;;4.37;100.00;101217.41;5096253;28;20703;-67
2023/01/23 00:56:41;;;;;;;23.00;14.07;;;;;;;4.32;100.00;101216.78;5100550;28;20046;-67
2023/01/23 00:59:06;;;;;;;23.23;13.35;;;;;;;4.42;100.00;101234.84;5097890;28;20470;-68
2023/01/23 01:01:32;;;;;;;21.02;13.68;;;;;;;4.44;100.00;101245.38;5098614;28;20337;-67
2023/01/23 01:03:58;;;;;;;21.77;14.13;;;;;;;4.44;100.00;101248.03;5092254;28;20036;-69
2023/01/23 01:06:24;;;;;;;20.15;13.27;;;;;;;4.42;100.00;101241.97;5104473;28;20034;-68
2023/01/23 01:08:50;;;;;;;24.33;13.93;;;;;;;4.47;100.00;101253.22;5097418;28;20024;-68
2023/01/23 01:11:16;;;;;;;24.25;12.77;;;;;;;4.50;100.00;101255.72;5097122;28;20211;-68
2023/01/23 01:13:43;;;;;;;23.48;13.38;;;;;;;4.48;100.00;101233.66;5103674;28;20028;-68
2023/01/23 01:16:09;;;;;;;23.40;13.80;;;;;;;4.48;100.00;101245.16;5099098;28;20072;-68
2023/01/23 01:18:35;;;;;;;24.27;15.25;;;;;;;4.42;100.00;101234.00;5099609;28;20106;-67
2023/01/23 01:21:05;;;;;;;24.27;13.73;;;;;;;4.48;100.00;101233.66;5097537;28;20026;-68
2023/01/23 01:23:30;;;;;;;20.13;13.07;;;;;;;4.46;100.00;101244.38;5100689;28;20051;-69
2023/01/23 01:25:59;;;;;;;24.63;14.20;;;;;;;4.49;100.00;101254.00;5101988;28;20051;-69
2023/01/23 01:28:27;;;;;;;24.67;13.40;;;;;;;4.45;100.00;101253.28;5101269;28;20104;-69
2023/01/23 01:30:52;;;;;;;22.55;13.25;;;;;;;4.46;100.00;101252.34;5102422;28;20480;-69
2023/01/23 01:33:18;;;;;;;22.77;14.25;;;;;;;4.45;100.00;101250.63;5099631;28;20055;-68
2023/01/23 01:35:43;;;;;;;24.00;14.55;;;;;;;4.42;100.00;101244.63;5100011;28;20236;-69
2023/01/23 01:38:09;;;;;;;23.52;13.10;;;;;;;4.47;100.00;101262.03;5093483;28;20027;-69
2023/01/23 01:40:35;;;;;;;26.13;13.85;;;;;;;4.47;100.00;101251.41;5104198;28;20468;-69
2023/01/23 01:43:04;;;;;;;20.38;12.95;;;;;;;4.47;100.00;101245.25;5102434;28;20499;-69
2023/01/23 01:45:54;;;;;;;20.98;13.63;;;;;;;4.47;100.00;101245.25;5104391;28;20024;-69
2023/01/23 01:48:23;;;;;;;25.00;14.18;;;;;;;4.51;100.00;101249.47;5105238;28;20059;-69
2023/01/23 01:50:50;;;;;;;22.05;12.98;;;;;;;4.47;100.00;101239.94;5103620;28;20063;-69
2023/01/23 01:53:15;;;;;;;23.85;13.75;;;;;;;4.42;100.00;101220.72;5099351;28;20031;-69
2023/01/23 01:55:41;;;;;;;22.15;13.68;;;;;;;4.46;100.00;101231.09;5104381;28;20031;-70
2023/01/23 01:58:08;;;;;;;24.67;13.38;;;;;;;4.48;100.00;101239.84;5105705;28;20259;-69
2023/01/23 02:00:33;;;;;;;22.02;14.52;;;;;;;4.44;100.00;101245.38;5105697;28;20042;-69
2023/01/23 02:03:02;;;;;;;24.85;14.00;;;;;;;4.53;100.00;101234.31;5102098;28;20027;-68
2023/01/23 02:05:32;;;;;;;22.20;12.88;;;;;;;4.48;100.00;101238.97;5101907;28;20027;-69
2023/01/23 02:08:16;;;;;;;22.67;13.02;;;;;;;4.50;100.00;101251.28;5101428;28;20015;-69
2023/01/23 02:10:42;;;;;;;23.13;13.65;;;;;;;4.56;100.00;101244.81;5098518;28;20440;-69
2023/01/23 02:13:34;;;;;;;25.13;13.88;;;;;;;4.50;100.00;101247.75;5105657;28;20400;-69
2023/01/23 02:16:04;;;;;;;23.88;13.55;;;;;;;4.51;100.00;101254.78;5103859;28;20085;-70
2023/01/23 02:18:31;;;;;;;19.27;12.50;;;;;;;4.50;100.00;101245.09;5101164;28;20040;-69
2023/01/23 02:21:00;;;;;;;23.55;13.60;;;;;;;4.43;100.00;101233.06;5102677;28;20055;-69
2023/01/23 02:23:41;;;;;;;22.27;13.60;;;;;;;4.50;100.00;101250.41;5105817;28;20111;-69
2023/01/23 02:26:12;;;;;;;23.77;13.60;;;;;;;4.55;100.00;101241.28;5107075;28;20023;-68
2023/01/23 02:28:43;;;;;;;22.00;13.52;;;;;;;4.55;100.00;101240.44;5103707;28;20126;-69
2023/01/23 02:31:09;;;;;;;18.48;12.23;;;;;;;4.45;100.00;101228.53;5106536;28;20062;-69
2023/01/23 02:33:34;;;;;;;26.80;13.82;;;;;;;4.48;100.00;101242.50;5102291;28;20059;-69
2023/01/23 02:36:02;;;;;;;22.20;13.82;;;;;;;4.48;100.00;101241.63;5107852;28;20034;-69
2023/01/23 02:38:59;;;;;;;23.13;12.90;;;;;;;4.44;100.00;101235.63;5102905;28;20065;-69
2023/01/23 02:41:32;;;;;;;19.17;12.50;;;;;;;4.44;100.00;101232.97;5103499;28;20039;-69
2023/01/23 02:44:01;;;;;;;20.52;12.45;;;;;;;4.51;100.00;101242.38;5105505;27;20047;-69
2023/01/23 02:46:27;;;;;;;22.50;13.85;;;;;;;4.45;100.00;101231.19;5106017;28;20107;-69
2023/01/23 02:48:53;;;;;;;24.30;13.68;;;;;;;4.44;100.00;101229.44;5106080;28;20115;-68
2023/01/23 02:51:20;;;;;;;23.23;12.75;;;;;;;4.41;100.00;101230.47;5101870;27;20048;-68
2023/01/23 02:53:48;;;;;;;23.00;13.82;;;;;;;4.33;100.00;101227.28;5099135;28;20048;-68
2023/01/23 02:56:13;;;;;;;23.33;13.02;;;;;;;4.37;100.00;101233.34;5100836;28;20044;-68
2023/01/23 03:01:26;;;;;;;23.45;13.27;;;;;;;4.35;100.00;101227.22;5097025;27;20050;-68
2023/01/23 03:03:54;;;;;;;24.10;14.40;;;;;;;4.35;100.00;101222.78;5104058;28;20088;-68
2023/01/23 03:06:20;;;;;;;23.95;13.27;;;;;;;4.27;100.00;101211.69;5096004;27;20030;-68
2023/01/23 03:08:48;;;;;;;20.60;13.23;;;;;;;4.27;100.00;101202.84;5102430;28;20645;-68
2023/01/23 03:11:16;;;;;;;22.20;13.20;;;;;;;4.36;100.00;101219.19;5100366;28;20055;-68
2023/01/23 03:13:43;;;;;;;20.52;12.43;;;;;;;4.33;100.00;101210.53;5105644;28;20035;-68
2023/01/23 03:16:09;;;;;;;21.85;12.60;;;;;;;4.29;100.00;101206.31;5101266;28;20016;-67
2023/01/23 03:18:34;;;;;;;20.15;13.43;;;;;;;4.30;100.00;101206.22;5099138;28;20046;-68
2023/01/23 03:21:02;;;;;;;20.63;13.02;;;;;;;4.30;100.00;101206.22;5100079;28;20035;-68
2023/01/23 03:23:27;;;;;;;23.25;13.23;;;;;;;4.17;100.00;101175.91;5097674;27;20047;-68
2023/01/23 03:25:57;;;;;;;20.63;12.65;;;;;;;4.32;100.00;101206.16;5105190;28;20067;-68
2023/01/23 03:31:09;;;;;;;21.55;11.90;;;;;;;4.28;100.00;101193.94;5100535;28;20054;-68
2023/01/23 03:33:34;;;;;;;21.38;12.02;;;;;;;4.29;100.00;101204.50;5099008;28;20050;-68
2023/01/23 03:36:00;;;;;;;20.15;11.95;;;;;;;4.27;100.00;101200.19;5099469;28;20371;-67
2023/01/23 03:38:26;;;;;;;22.38;12.82;;;;;;;4.24;100.00;101203.00;5096770;28;20055;-67
2023/01/23 03:43:35;;;;;;;20.88;12.35;;;;;;;4.27;100.00;101203.72;5103211;28;20039;-68
2023/01/23 03:46:01;;;;;;;20.48;12.75;;;;;;;4.26;100.00;101198.47;5098191;28;20468;-68
2023/01/23 03:48:26;;;;;;;19.58;11.90;;;;;;;4.26;100.00;101194.00;5105276;28;20042;-68
2023/01/23 03:50:52;;;;;;;21.13;12.70;;;;;;;4.20;100.00;101191.66;5099412;28;20051;-68
2023/01/23 03:53:17;;;;;;;20.45;12.65;;;;;;;4.29;100.00;101207.16;5094639;27;20035;-68
2023/01/23 03:55:46;;;;;;;21.45;12.30;;;;;;;4.31;100.00;101209.72;5098043;28;20020;-68
2023/01/23 03:58:12;;;;;;;17.05;11.30;;;;;;;4.31;100.00;101210.59;5101630;27;20159;-68
2023/01/23 04:00:43;;;;;;;21.30;11.85;;;;;;;4.30;100.00;101210.66;5097988;28;20060;-68
2023/01/23 04:03:08;;;;;;;23.92;12.32;;;;;;;4.27;100.00;101211.69;5085768;28;20026;-68
2023/01/23 04:05:34;;;;;;;22.20;12.77;;;;;;;4.26;100.00;101204.63;5102685;28;20471;-68
2023/01/23 04:07:59;;;;;;;18.92;11.20;;;;;;;4.28;100.00;101209.88;5097493;27;20023;-68
2023/01/23 04:10:25;;;;;;;19.05;11.93;;;;;;;4.25;100.00;101207.38;5100328;28;20027;-67
2023/01/23 04:12:50;;;;;;;21.60;11.15;;;;;;;4.19;100.00;101194.38;5100240;28;20032;-68
2023/01/23 04:15:17;;;;;;;23.50;12.20;;;;;;;4.18;100.00;101200.63;5099774;28;20035;-68
2023/01/23 04:17:42;;;;;;;20.42;12.52;;;;;;;4.24;100.00;101210.97;5098637;28;20071;-69
2023/01/23 04:20:10;;;;;;;22.98;11.80;;;;;;;4.23;100.00;101206.59;5099633;28;20177;-68
2023/01/23 04:22:35;;;;;;;19.27;11.38;;;;;;;4.20;100.00;101212.03;5100554;28;20076;-68
2023/01/23 04:25:01;;;;;;;18.50;11.90;;;;;;;4.20;100.00;101209.41;5099022;28;20642;-69
2023/01/23 04:27:26;;;;;;;18.52;11.50;;;;;;;4.17;100.00;101222.81;5100746;28;20084;-68
2023/01/23 04:29:52;;;;;;;23.65;12.90;;;;;;;4.18;100.00;101209.47;5102089;28;20061;-68
2023/01/23 04:32:17;;;;;;;19.77;11.23;;;;;;;4.16;100.00;101208.66;5102276;28;20063;-68
2023/01/23 04:34:42;;;;;;;20.15;12.27;;;;;;;4.14;100.00;101207.91;5103071;28;20050;-68
2023/01/23 04:37:08;;;;;;;21.92;12.65;;;;;;;4.05;100.00;101197.72;5102412;28;20459;-69
2023/01/23 04:39:33;;;;;;;23.45;12.57;;;;;;;4.17;100.00;101223.69;5129954;27;21907;-68
2023/01/23 04:41:59;;;;;;;19.15;11.70;;;;;;;4.19;100.00;101224.44;5102182;28;20024;-68
2023/01/23 04:44:26;;;;;;;20.13;12.25;;;;;;;4.08;100.00;101213.50;5104353;28;20036;-68
2023/01/23 04:46:53;;;;;;;20.70;12.07;;;;;;;4.15;100.00;101224.66;5106925;28;20035;-68
2023/01/23 04:49:20;;;;;;;18.67;12.15;;;;;;;4.18;100.00;101230.69;5102007;28;20031;-69
2023/01/23 04:51:47;;;;;;;22.17;12.50;;;;;;;4.15;100.00;101237.94;5097863;28;20059;-69
2023/01/23 04:54:13;;;;;;;19.50;12.07;;;;;;;4.05;100.00;101218.94;5099852;28;20142;-68
2023/01/23 04:56:38;;;;;;;19.67;11.40;;;;;;;4.08;100.00;101224.09;5101282;28;20091;-68
2023/01/23 04:59:04;;;;;;;20.35;11.88;;;;;;;4.18;100.00;101235.13;5101934;28;20111;-68
2023/01/23 05:01:30;;;;;;;17.02;11.52;;;;;;;4.15;100.00;101236.16;5097813;28;20084;-67
2023/01/23 05:03:55;;;;;;;18.27;11.80;;;;;;;4.16;100.00;101248.50;5097500;28;20615;-68
2023/01/23 05:06:21;;;;;;;20.27;11.63;;;;;;;4.19;100.00;101252.78;5094353;28;20092;-68
2023/01/23 05:08:46;;;;;;;19.05;11.40;;;;;;;4.13;100.00;101243.31;5094597;28;20517;-68
2023/01/23 05:11:11;;;;;;;20.92;12.45;;;;;;;4.15;100.00;101244.13;5094291;28;20031;-68
2023/01/23 05:13:37;;;;;;;18.58;11.43;;;;;;;4.12;100.00;101249.56;5104124;28;20024;-68
2023/01/23 05:16:03;;;;;;;19.05;12.32;;;;;;;4.13;100.00;101255.75;5094975;28;20027;-68
2023/01/23 05:18:28;;;;;;;23.33;14.05;;;;;;;3.93;100.00;101211.53;5105090;28;20065;-66
2023/01/23 05:20:54;;;;;;;25.13;14.65;;;;;;;4.12;100.00;101251.34;5103962;28;20392;-68
2023/01/23 05:23:19;;;;;;;20.17;12.13;;;;;;;4.07;100.00;101246.25;5108791;28;20024;-67
2023/01/23 05:25:45;;;;;;;23.48;13.27;;;;;;;4.07;100.00;101261.34;5103928;28;20042;-68
2023/01/23 05:28:10;;;;;;;23.00;12.45;;;;;;;4.00;100.00;101236.84;5096410;28;20040;-68
2023/01/23 05:30:36;;;;;;;25.08;13.20;;;;;;;4.08;100.00;101249.78;5098162;28;20059;-68
2023/01/23 05:33:02;;;;;;;21.65;12.88;;;;;;;4.05;100.00;101239.31;5096795;28;20037;-68
2023/01/23 05:35:27;;;;;;;21.73;12.93;;;;;;;4.03;100.00;101238.53;5103954;28;20111;-68
2023/01/23 05:37:53;;;;;;;24.00;13.77;;;;;;;4.03;100.00;101244.69;5103372;28;20027;-68
2023/01/23 05:40:19;;;;;;;22.92;12.50;;;;;;;4.08;100.00;101247.13;5098989;28;20089;-68
2023/01/23 05:42:45;;;;;;;20.58;12.77;;;;;;;4.05;100.00;101242.81;5103345;27;20050;-68
2023/01/23 05:45:11;;;;;;;25.23;13.55;;;;;;;4.00;100.00;101241.31;5102934;28;20491;-68
2023/01/23 05:47:37;;;;;;;21.63;12.63;;;;;;;4.00;100.00;101242.16;5090341;28;20043;-68
2023/01/23 05:50:04;;;;;;;19.55;12.43;;;;;;;4.04;100.00;101238.47;5129729;27;20468;-67
2023/01/23 05:52:30;;;;;;;23.65;14.13;;;;;;;3.99;100.00;101226.31;5101069;28;20031;-67
2023/01/23 05:54:55;;;;;;;23.88;13.20;;;;;;;4.00;100.00;101236.84;5101020;28;20160;-68
2023/01/23 05:57:21;;;;;;;23.20;13.43;;;;;;;4.03;100.00;101242.03;5100743;28;20027;-67
2023/01/23 05:59:46;;;;;;;22.95;13.80;;;;;;;4.00;100.00;101244.81;5095449;28;20391;-67
2023/01/23 06:02:12;;;;;;;22.25;13.98;;;;;;;4.06;100.00;101246.31;5103790;28;20036;-67
2023/01/23 06:04:38;;;;;;;22.38;14.25;;;;;;;4.01;100.00;101235.94;5099700;28;20027;-67
2023/01/23 06:07:03;;;;;;;22.67;13.50;;;;;;;4.02;100.00;101239.44;5092958;28;20032;-68
2023/01/23 06:09:29;;;;;;;23.88;14.00;;;;;;;4.01;100.00;101233.28;5087792;28;20054;-68
2023/01/23 06:11:54;;;;;;;25.25;15.13;;;;;;;4.04;100.00;101240.25;5097449;28;20051;-68
2023/01/23 06:14:19;;;;;;;25.58;13.30;;;;;;;4.03;100.00;101254.47;5100164;28;20036;-68
2023/01/23 06:16:45;;;;;;;23.67;13.73;;;;;;;4.06;100.00;101255.16;5092631;28;20023;-68
2023/01/23 06:19:11;;;;;;;25.20;13.95;;;;;;;4.05;100.00;101264.06;5089398;28;20488;-68
2023/01/23 06:21:37;;;;;;;22.55;13.82;;;;;;;4.11;100.00;101277.06;5096010;28;20039;-68
2023/01/23 06:24:02;;;;;;;25.00;14.20;;;;;;;4.08;100.00;101271.00;5089003;28;20030;-68
2023/01/23 06:26:28;;;;;;;22.98;14.32;;;;;;;4.05;100.00;101266.72;5086156;28;20027;-67
2023/01/23 06:28:53;;;;;;;23.98;13.60;;;;;;;4.10;100.00;101285.94;5090441;28;20722;-68
2023/01/23 06:31:19;;;;;;;25.98;14.05;;;;;;;3.99;100.00;101267.00;5091433;28;20664;-68
2023/01/23 06:33:48;;;;;;;22.33;13.77;;;;;;;4.14;100.00;101291.97;5090814;28;20034;-68
2023/01/23 06:36:14;;;;;;;25.05;14.73;;;;;;;4.13;100.00;101285.78;5095969;28;20403;-69
2023/01/23 06:38:39;;;;;;;23.33;14.35;;;;;;;4.18;100.00;101304.16;5093661;28;20028;-68
2023/01/23 06:41:07;;;;;;;22.98;13.27;;;;;;;4.16;100.00;101301.59;5096888;28;20036;-68
2023/01/23 06:43:41;;;;;;;21.02;13.60;;;;;;;4.18;100.00;101288.25;5104377;28;20032;-67
2023/01/23 06:46:10;;;;;;;21.85;13.95;;;;;;;4.24;100.00;101303.88;5098268;28;20032;-68
2023/01/23 06:48:37;;;;;;;25.45;14.40;;;;;;;4.28;100.00;101310.78;5093741;28;20031;-68
2023/01/23 06:51:03;;;;;;;22.65;13.45;;;;;;;4.27;100.00;101309.94;5102322;28;20052;-68
2023/01/23 06:53:29;;;;;;;22.10;13.50;;;;;;;4.23;100.00;101303.00;5109891;28;20033;-68
2023/01/23 06:55:59;;;;;;;26.58;14.65;;;;;;;4.26;100.00;101308.19;5105800;27;20032;-68
2023/01/23 06:58:25;;;;;;;27.98;13.77;;;;;;;4.27;100.00;101309.06;5098930;28;20059;-69
2023/01/23 07:00:51;;;;;;;23.10;12.93;;;;;;;4.24;100.00;101306.53;5101450;28;20051;-68
2023/01/23 07:03:16;;;;;;;25.15;14.77;;;;;;;4.33;100.00;101325.56;5097286;28;20035;-68
2023/01/23 07:05:42;;;;;;;23.50;14.73;;;;;;;4.34;100.00;101327.28;5101989;28;20429;-68
2023/01/23 07:08:08;;;;;;;20.10;13.15;;;;;;;4.38;100.00;101333.31;5103730;28;20426;-68
2023/01/23 07:10:36;;;;;;;25.73;14.68;;;;;;;4.39;100.00;101324.44;5106362;28;20095;-69
2023/01/23 07:13:06;;;;;;;22.20;14.23;;;;;;;4.43;100.00;101329.53;5101390;28;20126;-68
2023/01/23 07:15:33;;;;;;;25.85;14.80;;;;;;;4.35;100.00;101321.03;5109040;28;20031;-69
2023/01/23 07:17:59;;;;;;;22.05;13.13;;;;;;;4.44;100.00;101333.91;5104486;28;20024;-69
2023/01/23 07:20:27;;;;;;;24.60;14.60;;;;;;;4.43;100.00;101339.28;5104366;28;20032;-69
2023/01/23 07:22:56;;;;;;;22.83;13.77;;;;;;;4.34;100.00;101321.13;5108804;28;20515;-68
2023/01/23 07:25:23;;;;;;;22.23;12.95;;;;;;;4.47;100.00;101344.38;5105502;28;20032;-68
2023/01/23 07:27:49;;;;;;;21.10;14.30;;;;;;;4.49;100.00;101347.81;5102569;28;20163;-69
2023/01/23 07:30:15;;;;;;;24.42;13.32;;;;;;;4.49;100.00;101342.50;5109018;28;20120;-68
2023/01/23 07:32:41;;;;;;;22.55;13.73;;;;;;;4.53;100.00;101343.22;5106963;28;20046;-69
2023/01/23 07:35:07;;;;;;;26.05;15.38;;;;;;;4.54;100.00;101331.66;5101660;28;20031;-68
2023/01/23 07:37:33;;;;;;;25.48;14.90;;;;;;;4.56;100.00;101346.63;5095147;28;20035;-68
2023/01/23 07:39:58;;;;;;;23.10;15.00;;;;;;;4.62;100.00;101332.19;5108630;28;20066;-68
2023/01/23 07:42:24;;;;;;;20.90;13.18;;;;;;;4.65;100.00;101347.97;5102697;28;20023;-68
2023/01/23 07:44:49;;;;;;;22.85;13.45;;;;;;;4.65;100.00;101337.34;5101650;28;20034;-68
2023/01/23 07:47:15;;;;;;;21.52;13.07;;;;;;;4.73;100.00;101343.16;5095259;28;20035;-68
2023/01/23 07:49:40;;;;;;;18.65;12.50;;;;;;;4.78;100.00;101342.94;5101398;28;20028;-68
2023/01/23 07:52:06;;;;;;;20.42;12.48;;;;;;;4.80;100.00;101343.72;5095060;28;20044;-68
2023/01/23 07:54:31;;;;;;;22.02;12.48;;;;;;;4.81;100.00;101332.16;5101539;28;20472;-67
2023/01/23 07:56:56;;;;;;;20.27;12.93;;;;;;;4.84;100.00;101337.31;5097131;28;20031;-69
2023/01/23 07:59:22;;;;;;;23.48;13.85;;;;;;;4.89;100.00;101336.16;5131776;27;20032;-68
2023/01/23 08:01:49;;;;;;;21.05;13.13;;;;;;;4.92;100.00;101336.00;5102690;28;20036;-69
2023/01/23 08:04:15;;;;;;;20.73;12.45;;;;;;;4.97;100.00;101335.81;5105538;28;20054;-69
2023/01/23 08:06:40;;;;;;;21.20;12.88;;;;;;;5.08;100.00;101344.97;5100539;28;20067;-69
2023/01/23 08:09:06;;;;;;;19.83;12.00;;;;;;;5.03;100.00;101339.00;5106423;28;20020;-69
2023/01/23 08:11:31;;;;;;;19.38;11.98;;;;;;;5.19;100.00;101358.59;5103885;28;20483;-69
2023/01/23 08:13:57;;;;;;;18.40;12.77;;;;;;;5.26;100.00;101349.41;5107815;28;20036;-69
2023/01/23 08:16:22;;;;;;;18.30;11.57;;;;;;;5.35;100.00;101348.91;5108798;28;20147;-69
2023/01/23 08:18:48;;;;;;;20.08;11.80;;;;;;;5.39;100.00;101354.94;5105373;27;20031;-69
2023/01/23 08:21:14;;;;;;;16.95;11.25;;;;;;;5.46;100.00;101367.00;5108773;28;20035;-69
2023/01/23 08:23:40;;;;;;;17.40;11.15;;;;;;;5.49;100.00;101366.84;5098208;28;20372;-69
2023/01/23 08:26:07;;;;;;;18.98;11.77;;;;;;;5.55;100.00;101366.53;5098007;28;20032;-69
2023/01/23 08:28:33;;;;;;;14.82;10.60;;;;;;;5.52;100.00;101350.72;5098768;28;20027;-69
2023/01/23 08:31:04;;;;;;;15.57;10.52;;;;;;;5.62;100.00;101368.81;5103732;28;20411;-69
2023/01/23 08:33:31;;;;;;;16.83;11.48;;;;;;;5.57;100.00;101352.22;5098294;28;20115;-69
2023/01/23 08:35:57;;;;;;;16.95;11.20;;;;;;;5.70;100.00;101355.97;5099643;28;20031;-70
2023/01/23 08:38:24;;;;;;;17.65;11.25;;;;;;;5.74;100.00;101376.16;5103718;28;20771;-70
2023/01/23 08:40:51;;;;;;;15.45;10.65;;;;;;;5.81;100.00;101377.59;5103527;28;20027;-69
2023/01/23 08:43:17;;;;;;;15.18;10.25;;;;;;;5.84;100.00;101366.78;5098399;28;20730;-69
2023/01/23 08:45:52;;;;;;;16.05;10.63;;;;;;;5.86;100.00;101364.06;5099201;28;20373;-69
2023/01/23 08:48:18;;;;;;;15.10;10.02;;;;;;;5.87;100.00;101361.31;5105322;28;20035;-68
2023/01/23 08:50:44;;;;;;;16.80;11.05;;;;;;;5.93;100.00;101353.00;5097160;28;20369;-68
2023/01/23 08:53:10;;;;;;;15.30;10.48;;;;;;;5.98;100.00;101364.28;5100904;28;20030;-68
2023/01/23 08:55:37;;;;;;;16.60;10.68;;;;;;;5.98;100.00;101353.66;5100528;28;20024;-68
2023/01/23 08:58:04;;;;;;;14.95;9.85;;;;;;;5.99;100.00;101350.03;5103424;28;20034;-68
2023/01/23 09:00:30;;;;;;;19.45;10.27;;;;;;;6.06;100.00;101350.59;5104495;28;20024;-68
2023/01/23 09:02:59;;;;;;;14.57;10.55;;;;;;;6.11;100.00;101344.06;5093174;28;20031;-69
2023/01/23 09:05:24;;;;;;;17.42;10.27;;;;;;;6.15;100.00;101361.59;5098112;28;20114;-68
2023/01/23 09:07:50;;;;;;;16.42;10.40;;;;;;;6.14;100.00;101340.38;5102019;28;20172;-68
2023/01/23 09:10:15;;;;;;;16.13;10.38;;;;;;;6.23;100.00;101343.38;5101650;28;20114;-68
2023/01/23 09:12:42;;;;;;;13.93;10.73;;;;;;;6.26;100.00;101348.56;5100444;28;20038;-68
2023/01/23 09:15:08;;;;;;;15.65;10.43;;;;;;;6.38;100.00;101363.00;5101876;28;20067;-68
2023/01/23 09:17:33;;;;;;;13.25;9.93;;;;;;;6.42;100.00;101365.44;5103886;28;20627;-69
2023/01/23 09:19:59;;;;;;;16.48;10.85;;;;;;;6.35;100.00;101353.41;5102282;28;20023;-68
2023/01/23 09:22:25;;;;;;;14.43;10.07;;;;;;;6.47;100.00;101360.72;5093816;28;20024;-69
2023/01/23 09:24:50;;;;;;;15.25;10.23;;;;;;;6.48;100.00;101353.59;5097230;28;20023;-69
2023/01/23 09:27:17;;;;;;;16.20;10.55;;;;;;;6.58;100.00;101376.97;5105929;28;20032;-69
2023/01/23 09:29:42;;;;;;;15.88;10.65;;;;;;;6.62;100.00;101367.03;5100669;28;20099;-68
2023/01/23 09:32:08;;;;;;;14.52;9.93;;;;;;;6.70;100.00;101360.31;5100744;28;20041;-68
2023/01/23 09:34:33;;;;;;;16.25;10.00;;;;;;;6.76;100.00;101361.78;5101616;28;20110;-68
2023/01/23 09:36:59;;;;;;;16.02;9.73;;;;;;;6.77;100.00;101356.38;5101953;28;20122;-68
2023/01/23 09:39:24;;;;;;;16.10;9.80;;;;;;;6.90;100.00;101345.88;5101403;28;20741;-68
2023/01/23 09:41:50;;;;;;;15.32;9.48;;;;;;;6.98;100.00;101357.84;5099413;28;20047;-69
2023/01/23 09:44:21;;;;;;;12.18;9.15;;;;;;;7.03;100.00;101355.75;5106085;28;20035;-69
2023/01/23 09:46:46;;;;;;;13.65;9.05;;;;;;;7.11;100.00;101355.34;5104862;28;20380;-70
2023/01/23 09:49:27;;;;;;;15.50;10.00;;;;;;;7.18;100.00;101355.81;5103390;28;20028;-70
2023/01/23 09:52:15;;;;;;;16.33;10.13;;;;;;;7.24;100.00;101344.81;5098792;28;20051;-70
2023/01/23 09:54:56;;;;;;;15.82;10.38;;;;;;;7.25;100.00;101333.22;5100990;28;20080;-70
2023/01/23 09:57:28;;;;;;;17.30;9.60;;;;;;;7.40;100.00;101342.97;5102373;28;20031;-68
2023/01/23 10:00:02;;;;;;;14.73;10.02;;;;;;;7.43;100.00;101340.13;5094647;28;20024;-69
2023/01/23 10:02:28;;;;;;;14.50;10.07;;;;;;;7.46;100.00;101335.47;5106720;28;20104;-69
2023/01/23 10:04:56;;;;;;;15.60;10.25;;;;;;;7.51;100.00;101337.88;5104649;28;20023;-69
2023/01/23 10:07:25;;;;;;;14.73;9.73;;;;;;;7.62;100.00;101340.75;5107850;28;20039;-68
2023/01/23 10:10:13;;;;;;;15.25;10.13;;;;;;;7.68;100.00;101332.38;5109153;28;20360;-68
2023/01/23 10:12:45;;;;;;;18.08;8.98;;;;;;;7.73;100.00;101335.63;5104389;28;20110;-70
2023/01/23 10:15:16;;;;;;;13.80;9.68;;;;;;;7.79;100.00;101336.13;5103600;27;20028;-69
2023/01/23 10:17:52;;;;;;;15.30;10.10;;;;;;;7.83;100.00;101339.50;5105913;28;20028;-70
2023/01/23 10:20:43;;;;;;;15.32;9.43;;;;;;;7.90;100.00;101354.19;5108173;28;20122;-70
2023/01/23 10:23:26;;;;;;;14.50;9.38;;;;;;;7.92;100.00;101352.25;5107357;28;20042;-70
2023/01/23 10:25:52;;;;;;;15.60;9.23;;;;;;;7.94;100.00;101348.56;5107204;27;20027;-70
2023/01/23 10:28:26;;;;;;;16.38;9.93;;;;;;;8.04;100.00;101343.53;5106883;28;20031;-71
2023/01/23 10:30:59;;;;;;;13.90;9.32;;;;;;;8.13;100.00;101338.47;5104942;28;20539;-71
2023/01/23 10:33:39;;;;;;;11.10;7.90;;;;;;;8.20;100.00;101333.59;5099053;28;20035;-71
2023/01/23 10:36:22;;;;;;;11.75;8.48;;;;;;;8.26;100.00;101334.09;5099455;28;20929;-70
2023/01/23 10:39:01;;;;;;;14.02;8.75;;;;;;;8.26;100.00;101318.06;5101773;28;20043;-70
2023/01/23 10:41:27;;;;;;;13.32;8.75;;;;;;;8.32;100.00;101316.84;5102262;28;20560;-70
2023/01/23 10:43:55;;;;;;;14.57;9.95;;;;;;;8.42;100.00;101312.66;5101623;28;20054;-70
2023/01/23 10:46:27;;;;;;;14.02;8.57;;;;;;;8.55;100.00;101322.44;5110071;28;20015;-68
2023/01/23 10:48:53;;;;;;;16.58;10.95;;;;;;;8.57;100.00;101328.56;5105071;27;20391;-71
2023/01/23 10:51:31;;;;;;;15.05;9.55;;;;;;;8.60;100.00;101330.19;5105221;28;20043;-70
2023/01/23 10:54:11;;;;;;;14.48;9.63;;;;;;;8.61;100.00;101314.03;5107430;28;20555;-69
2023/01/23 10:56:57;;;;;;;19.27;11.32;;;;;;;8.60;100.00;101304.31;5108367;28;20034;-69
2023/01/23 10:59:25;;;;;;;11.95;8.15;;;;;;;8.61;100.00;101311.34;5108107;28;20024;-69
2023/01/23 11:02:09;;;;;;;12.75;8.73;;;;;;;8.70;100.00;101318.81;5110216;28;20031;-69
2023/01/23 11:04:35;;;;;;;11.52;8.40;;;;;;;8.73;100.00;101317.72;5109996;28;20428;-70
2023/01/23 11:07:21;;;;;;;12.05;8.25;;;;;;;8.79;98.86;101330.72;5107693;28;20114;-69
2023/01/23 11:09:55;;;;;;;13.80;8.63;;;;;;;8.88;98.50;101331.00;5105939;28;20024;-69
2023/01/23 11:12:22;;;;;;;12.93;8.43;;;;;;;8.91;98.15;101325.41;5109043;28;20031;-70
2023/01/23 11:14:49;;;;;;;12.60;8.27;;;;;;;8.99;97.74;101322.25;5105887;28;20035;-69
2023/01/23 11:17:21;;;;;;;11.25;8.50;;;;;;;9.05;98.13;101325.41;5108323;28;20112;-69
2023/01/23 11:19:53;;;;;;;10.95;7.90;;;;;;;9.06;97.97;101327.13;5106158;28;20099;-69